Latest Weather Observations for Badgingarra

IDW60801

Issued at 5:34 pm WST Wednesday 26 April 2017 (issued every 30 minutes, with the page automatically refreshed every 10 minutes)

About weather observations | Map of weather stations | Latest weather observations for WA | Other Formats
Station Details ID: 009037 Name: BADGINGARRA RESEARCH STN Lat: -30.34 Lon: 115.54 Height: 275.0 m
Data from the previous 72 hours. | See also: Recent months at Badgingarra
Date/Time
WST
Temp
°C
App
Temp
°C
Dew
Point
°C
Rel
Hum
%
Delta-T
°C
Wind Press
QNH
hPa
Press
MSL
hPa
Rain since
9am
mm
Dir  Spd
km/h
Gust
km/h
Spd
kts
Gust
kts
26/05:30pm 22.5 19.0 3.6 29 9.3 SE 11 13 6 7 - - 0.0
26/05:00pm 24.5 21.1 3.8 26 10.3 SE 11 19 6 10 - - 0.0
26/04:30pm 25.1 21.3 3.7 25 10.7 SE 13 20 7 11 - - 0.0
26/04:00pm 26.1 22.7 4.0 24 11.2 SE 11 17 6 9 - - 0.0
26/03:30pm 26.5 23.9 4.3 24 11.3 E 7 17 4 9 - - 0.0
26/03:00pm 26.8 24.8 4.6 24 11.4 NE 4 15 2 8 - - 0.0
26/02:30pm 26.5 23.2 4.3 24 11.3 ENE 11 20 6 11 - - 0.0
26/02:00pm 25.9 23.5 4.4 25 10.9 NNE 6 13 3 7 - - 0.0
26/01:30pm 26.3 24.5 5.3 26 10.9 E 4 9 2 5 - - 0.0
26/01:00pm 25.9 22.7 4.9 26 10.8 ENE 11 20 6 11 - - 0.0
26/12:30pm 25.8 23.4 5.4 27 10.6 ENE 7 17 4 9 - - 0.0
26/12:00pm 25.2 21.8 5.9 29 10.0 NE 13 20 7 11 - - 0.0
26/11:30am 25.2 21.9 6.4 30 9.9 NE 13 20 7 11 - - 0.0
26/11:00am 24.5 20.9 6.7 32 9.4 NNE 15 24 8 13 - - 0.0
26/10:30am 23.2 19.3 6.9 35 8.5 NE 17 28 9 15 - - 0.0
26/10:00am 22.0 18.1 7.0 38 7.8 NE 17 24 9 13 - - 0.0
26/09:30am 20.7 16.4 7.7 43 6.8 ENE 20 24 11 13 - - 0.0
26/09:00am 19.0 13.8 7.1 46 6.1 ENE 24 32 13 17 - - 0.0
26/08:30am 17.7 13.3 7.2 50 5.3 E 20 28 11 15 - - 0.0
26/08:00am 16.7 12.8 7.1 53 4.8 E 17 22 9 12 - - 0.0
26/07:30am 15.5 12.3 7.0 57 4.2 ESE 13 20 7 11 - - 0.0
26/07:00am 14.7 10.4 6.8 59 3.9 ESE 19 24 10 13 - - 0.0
26/06:30am 14.6 10.2 6.7 59 3.9 ESE 19 24 10 13 - - 0.0
26/06:00am 15.1 10.7 6.7 57 4.2 ESE 19 26 10 14 - - 0.0
26/05:30am 15.2 10.6 6.7 57 4.2 ESE 20 28 11 15 - - 0.0
26/05:00am 15.1 10.7 6.4 56 4.3 ESE 19 28 10 15 - - 0.0
26/04:30am 15.3 10.7 6.3 55 4.4 ESE 20 30 11 16 - - 0.0
26/04:00am 14.9 10.5 6.7 58 4.0 ESE 19 24 10 13 - - 0.0
26/03:30am 14.9 11.0 7.0 59 3.9 ESE 17 24 9 13 - - 0.0
26/03:00am 15.0 10.7 7.1 59 3.9 SE 19 24 10 13 - - 0.0
26/02:30am 15.0 10.5 7.1 59 3.9 SE 20 28 11 15 - - 0.0
26/02:00am 14.9 10.7 7.5 61 3.7 SE 19 24 10 13 - - 0.0
26/01:30am 15.4 10.6 7.4 59 4.0 SE 22 28 12 15 - - 0.0
26/01:00am 15.6 11.5 7.9 60 3.9 SE 19 28 10 15 - - 0.0
26/12:30am 15.9 11.7 8.4 61 3.9 SE 20 30 11 16 - - 0.0
26/12:00am 15.5 11.6 8.5 63 3.6 SE 19 22 10 12 - - 0.0
 
Date/Time
WST
Temp
°C
App
Temp
°C
Dew
Point
°C
Rel
Hum
%
Delta-T
°C
Wind Press
QNH
hPa
Press
MSL
hPa
Rain since
9am
mm
Dir  Spd
km/h
Gust
km/h
Spd
kts
Gust
kts
25/11:30pm 15.0 11.6 9.1 68 3.1 SE 17 20 9 11 - - 0.0
25/11:00pm 13.7 10.7 9.2 74 2.3 SSE 15 17 8 9 - - 0.0
25/10:30pm 14.1 10.8 9.7 75 2.3 SSE 17 19 9 10 - - 0.0
25/10:00pm 14.6 11.1 10.2 75 2.3 SSE 19 22 10 12 - - 0.0
25/09:30pm 15.1 11.5 10.5 74 2.5 SSE 20 24 11 13 - - 0.0
25/09:00pm 15.3 12.0 10.9 75 2.4 SSE 19 22 10 12 - - 0.0
25/08:30pm 15.9 12.7 11.3 74 2.5 SSE 19 22 10 12 - - 0.0
25/08:00pm 16.6 13.3 11.5 72 2.8 S 20 24 11 13 - - 0.0
25/07:30pm 16.8 13.9 11.1 69 3.1 S 17 19 9 10 - - 0.0
25/07:00pm 16.3 13.1 6.7 53 4.8 SSE 13 15 7 8 - - 0.0
25/06:30pm 19.0 16.3 7.4 47 6.0 SE 11 13 6 7 - - 0.0
25/06:00pm 20.8 17.4 7.8 43 6.8 SE 15 19 8 10 - - 0.0
25/05:30pm 22.2 18.5 8.0 40 7.5 SE 17 28 9 15 - - 0.0
25/05:00pm 23.3 19.0 7.8 37 8.2 SE 20 30 11 16 - - 0.0
25/04:30pm 24.1 20.2 7.3 34 8.9 SE 17 24 9 13 - - 0.0
25/04:00pm 24.6 20.7 7.3 33 9.2 ESE 17 30 9 16 - - 0.0
25/03:30pm 24.6 20.5 7.7 34 9.0 SE 19 30 10 16 - - 0.0
25/03:00pm 25.0 21.2 7.6 33 9.3 SE 17 28 9 15 - - 0.0
25/02:30pm 25.2 21.9 8.2 34 9.2 SSE 15 26 8 14 - - 0.0
25/02:00pm 25.3 21.2 7.9 33 9.4 SE 19 26 10 14 - - 0.0
25/01:30pm 24.4 21.2 8.4 36 8.7 SE 15 24 8 13 - - 0.0
25/01:00pm 24.3 20.7 8.3 36 8.6 SE 17 28 9 15 - - 0.0
25/12:30pm 23.4 20.1 7.9 37 8.3 ESE 15 26 8 14 - - 0.0
25/12:00pm 23.4 20.3 8.7 39 8.0 SE 15 26 8 14 - - 0.0
25/11:30am 22.7 19.3 10.5 46 6.8 ESE 19 26 10 14 - - 0.0
25/11:00am 22.3 20.3 11.4 50 6.2 SE 13 22 7 12 - - 0.0
25/10:30am 20.7 18.4 11.9 57 5.0 ESE 15 20 8 11 - - 0.0
25/10:00am 19.0 16.3 11.8 63 4.0 SE 17 24 9 13 - - 0.0
25/09:30am 18.1 15.4 11.7 66 3.6 SE 17 20 9 11 - - 0.0
25/09:00am 17.2 14.3 12.3 73 2.7 SE 19 24 10 13 - - 0.0
25/08:30am 15.5 12.5 12.1 80 1.9 ESE 19 22 10 12 - - 0.0
25/08:00am 14.4 11.4 12.1 86 1.3 ESE 19 24 10 13 - - 0.0
25/07:30am 13.0 11.4 11.4 90 0.9 SE 11 17 6 9 - - 0.0
25/07:00am 12.2 9.6 10.8 91 0.7 SE 15 19 8 10 - - 0.0
25/06:30am 12.4 9.4 10.6 89 0.9 SE 17 20 9 11 - - 0.0
25/06:00am 12.7 9.7 10.8 88 1.0 SE 17 20 9 11 - - 0.0
25/05:30am 12.8 10.2 10.7 87 1.1 ESE 15 19 8 10 - - 0.0
25/05:00am 13.1 10.1 10.8 86 1.2 SE 17 22 9 12 - - 0.0
25/04:30am 13.3 10.0 10.8 85 1.3 SE 19 24 10 13 - - 0.0
25/04:00am 13.7 10.5 11.4 86 1.2 SE 19 24 10 13 - - 0.0
25/03:30am 13.6 11.2 12.7 94 0.5 SSE 17 22 9 12 - - 0.0
25/03:00am 13.5 11.5 12.6 94 0.5 SSE 15 17 8 9 - - 0.0
25/02:30am 14.3 11.7 13.3 94 0.6 SSE 19 22 10 12 - - 0.0
25/02:00am 14.7 12.1 13.7 94 0.6 S 20 26 11 14 - - 0.0
25/01:30am 15.0 11.7 13.9 93 0.6 SSE 24 32 13 17 - - 0.0
25/01:00am 15.2 11.5 13.9 92 0.7 S 26 33 14 18 - - 0.0
25/12:30am 15.2 11.7 13.4 89 1.0 S 24 30 13 16 - - 0.0
25/12:00am 15.2 11.9 12.7 85 1.4 S 22 26 12 14 - - 0.0
 
Date/Time
WST
Temp
°C
App
Temp
°C
Dew
Point
°C
Rel
Hum
%
Delta-T
°C
Wind Press
QNH
hPa
Press
MSL
hPa
Rain since
9am
mm
Dir  Spd
km/h
Gust
km/h
Spd
kts
Gust
kts
24/11:30pm 15.1 11.8 12.8 86 1.3 S 22 26 12 14 - - 0.0
24/11:00pm 15.3 12.1 13.0 86 1.3 S 22 26 12 14 - - 0.0
24/10:30pm 15.5 12.4 13.3 87 1.2 S 22 26 12 14 - - 0.0
24/10:00pm 16.0 13.0 13.7 86 1.3 S 22 30 12 16 - - 0.0
24/09:30pm 16.2 12.6 13.1 82 1.7 S 24 30 13 16 - - 0.0
24/09:00pm 16.8 13.1 12.7 77 2.3 S 24 30 13 16 - - 0.0
24/08:30pm 17.3 13.3 13.0 76 2.4 S 26 35 14 19 - - 0.0
24/08:00pm 17.4 13.7 12.7 74 2.6 S 24 28 13 15 - - 0.0
24/07:30pm 18.0 14.6 11.3 65 3.7 S 20 24 11 13 - - 0.0
24/07:00pm 19.5 14.6 11.3 59 4.6 S 28 33 15 18 - - 0.0
24/06:30pm 20.2 15.6 11.1 56 5.1 S 26 33 14 18 - - 0.0
24/06:00pm 21.8 18.7 9.0 44 6.9 SSE 15 20 8 11 - - 0.0
24/05:30pm 23.2 19.3 8.5 39 7.9 SSE 19 22 10 12 - - 0.0
24/05:00pm 24.3 20.8 7.0 33 9.1 SE 15 20 8 11 - - 0.0
24/04:30pm 24.9 20.6 8.0 34 9.1 SE 20 28 11 15 - - 0.0
24/04:00pm 25.6 21.4 8.1 33 9.5 SE 20 28 11 15 - - 0.0
24/03:30pm 26.3 21.6 7.8 31 10.0 SE 22 33 12 18 - - 0.0
24/03:00pm 26.5 22.6 8.5 32 9.9 ESE 19 30 10 16 - - 0.0
24/02:30pm 26.7 22.8 8.6 32 10.0 SE 19 30 10 16 - - 0.0
24/02:00pm 26.6 22.6 8.1 31 10.1 ESE 19 32 10 17 - - 0.0
24/01:30pm 26.2 22.3 8.7 33 9.6 SE 19 32 10 17 - - 0.0
24/01:00pm 25.8 21.4 8.8 34 9.3 SE 22 35 12 19 - - 0.0
24/12:30pm 25.1 20.7 9.0 36 8.8 SE 22 32 12 17 - - 0.0
24/12:00pm 25.4 22.1 9.7 37 8.7 ESE 17 26 9 14 - - 0.0
24/11:30am 24.7 22.2 10.9 42 7.8 E 15 28 8 15 - - 0.0
24/11:00am 23.6 21.1 11.0 45 7.1 E 15 24 8 13 - - 0.0
24/10:30am 22.5 19.3 11.3 49 6.3 ENE 19 26 10 14 - - 0.0
24/10:00am 21.9 19.5 11.3 51 6.0 ENE 15 20 8 11 - - 0.0
24/09:30am 21.1 17.7 11.2 53 5.5 ENE 20 26 11 14 - - 0.0
24/09:00am 19.3 - 11.1 59 4.5 - - - - - - - -

Other Formats:

Comma delimited format used in spreadsheet applications
http://www.bom.gov.au/fwo/IDW60801/IDW60801.94603.axf

JavaScript Object Notation format (JSON) in row-major order
http://www.bom.gov.au/fwo/IDW60801/IDW60801.94603.json